KESC/ESC METAR and TAF weather

Enter ICAO airport designator
Station Type Date Time Source
KESC METAR 2021/07/24 19:07 UTC NOAA

KESC 241907Z AUTO 28008KT 10SM SCT026 SCT035 27/22 A2974 RMK AO2 PNO $


Station Type Date Time Source
KESC Decoded METAR 2021/07/24 19:07 UTC NOAA

Escanaba, MI, United States (KESC) 45-45N 087-02W 187M
Jul 24, 2021 - 03:07 PM EDT / 2021.07.24 1907 UTC
Wind: from the W (280 degrees) at 9 MPH (8 KT):0
Visibility: 10 mile(s):0
Sky conditions: partly cloudy
Temperature: 80 F (27 C)
Dew Point: 71 F (22 C)
Relative Humidity: 74%
Pressure (altimeter): 29.74 in. Hg (1007 hPa)
ob: KESC 241907Z AUTO 28008KT 10SM SCT026 SCT035 27/22 A2974 RMK AO2 PNO
cycle: 19

Station Type Date Time Source
KESC TAF UTC NOAA

Error!

Example: see airport list